Terminal Aerodrome Forecast
Issued by NWS

Home | Current Version | Previous Version | Text Only | Print | Product List | Glossary Off
Versions: 1 2 3 4 5 6 7 8 9 10 11 12 13 14 15 16 17 18 19 20 21

000
FTUS43 KGRB 241600 AAC
TAFATW
TAF AMD
KATW 241635Z 2417/2512 01006KT 1/2SM -DZ FG VV002
      TEMPO 2417/2418 2SM BR OVC002
     FM241800 01007KT 3SM BR OVC007
     FM242000 01010G15KT 6SM BR OVC010
     FM242200 36013G22KT 6SM -SN SCT012 OVC020
     FM250100 34011G20KT P6SM -SN SCT014 BKN024
     FM250600 28010KT P6SM OVC025=

USA.gov is the U.S. government's official web portal to all federal, state and local government web resources and services.